Time;durP1;ratioP1;P1;durP2;ratioP2;P2;SDS_P1;SDS_P2;PMS_P1;PMS_P2;Temp;Humidity;BMP_temperature;BMP_pressure;BME280_temperature;BME280_humidity;BME280_pressure;Samples;Min_cycle;Max_cycle;Signal;HPM_P1;HPM_P2
2021/03/24 00:01:44;;;;;;;18.57;10.73;;;4.70;88.90;;;;;;4878815;29;20052;-70
2021/03/24 00:04:12;;;;;;;18.33;10.27;;;4.70;89.00;;;;;;4879988;29;20056;-70
2021/03/24 00:06:38;;;;;;;18.93;11.47;;;4.70;89.00;;;;;;4876999;29;20050;-70
2021/03/24 00:09:09;;;;;;;14.77;8.47;;;4.70;88.90;;;;;;4868945;29;20113;-70
2021/03/24 00:11:36;;;;;;;17.10;9.60;;;4.60;88.90;;;;;;4878699;29;20136;-69
2021/03/24 00:14:04;;;;;;;14.83;8.63;;;4.60;88.90;;;;;;4856049;29;20045;-69
2021/03/24 00:16:31;;;;;;;15.57;8.87;;;4.60;89.00;;;;;;4875426;29;20041;-69
2021/03/24 00:18:58;;;;;;;17.50;9.53;;;4.50;88.90;;;;;;4889318;29;20059;-69
2021/03/24 00:21:24;;;;;;;20.03;9.50;;;4.50;88.90;;;;;;4893785;29;20048;-69
2021/03/24 00:23:51;;;;;;;15.90;8.50;;;4.50;89.00;;;;;;4875536;29;20041;-69
2021/03/24 00:26:18;;;;;;;18.60;9.37;;;4.50;89.00;;;;;;4894469;29;20474;-69
2021/03/24 00:28:45;;;;;;;16.70;9.40;;;4.50;89.10;;;;;;4877751;29;20053;-69
2021/03/24 00:31:11;;;;;;;16.80;9.13;;;4.50;89.70;;;;;;4878445;29;20108;-69
2021/03/24 00:33:38;;;;;;;16.47;8.93;;;4.50;89.10;;;;;;4892707;29;20083;-69
2021/03/24 00:36:05;;;;;;;19.10;9.57;;;4.40;89.10;;;;;;4874165;29;20037;-69
2021/03/24 00:38:32;;;;;;;18.93;10.57;;;4.40;89.10;;;;;;4862804;29;20052;-69
2021/03/24 00:40:59;;;;;;;19.27;10.20;;;4.40;89.10;;;;;;4879768;29;20049;-70
2021/03/24 00:43:27;;;;;;;19.07;9.73;;;4.40;89.20;;;;;;4872575;29;20045;-69
2021/03/24 00:45:54;;;;;;;17.93;9.93;;;4.30;89.10;;;;;;4876584;29;20093;-69
2021/03/24 00:48:39;;;;;;;15.60;9.07;;;4.30;89.20;;;;;;4878379;29;20044;-69
2021/03/24 00:51:09;;;;;;;16.50;8.67;;;4.30;89.20;;;;;;4877187;29;20041;-69
2021/03/24 00:53:35;;;;;;;16.33;9.03;;;4.30;89.20;;;;;;4877935;29;20080;-69
2021/03/24 00:56:02;;;;;;;17.87;10.13;;;4.30;89.20;;;;;;4877874;29;20069;-69
2021/03/24 00:58:29;;;;;;;19.13;10.80;;;4.20;89.20;;;;;;4859422;29;20050;-69
2021/03/24 01:00:55;;;;;;;17.37;10.30;;;4.20;89.20;;;;;;4877757;29;20049;-70
2021/03/24 01:03:22;;;;;;;15.90;9.20;;;4.20;89.20;;;;;;4879101;29;20085;-69
2021/03/24 01:05:50;;;;;;;17.53;9.40;;;4.20;89.30;;;;;;4878441;29;20045;-69
2021/03/24 01:08:20;;;;;;;17.30;9.53;;;4.20;89.30;;;;;;4876281;29;20406;-69
2021/03/24 01:10:47;;;;;;;15.87;8.27;;;4.20;89.30;;;;;;4876892;29;20168;-69
2021/03/24 01:13:16;;;;;;;15.27;8.67;;;4.10;89.30;;;;;;4871758;29;20037;-69
2021/03/24 01:15:42;;;;;;;15.83;8.80;;;4.10;89.20;;;;;;4867210;29;20501;-70
2021/03/24 01:18:10;;;;;;;15.07;8.87;;;4.10;89.20;;;;;;4862959;29;20056;-70
2021/03/24 01:20:39;;;;;;;16.10;9.20;;;4.10;89.30;;;;;;4874457;29;20036;-69
2021/03/24 01:23:06;;;;;;;17.43;9.53;;;4.10;89.20;;;;;;4888650;29;20125;-69
2021/03/24 01:25:33;;;;;;;17.63;10.23;;;4.10;89.20;;;;;;4876306;29;20044;-69
2021/03/24 01:28:03;;;;;;;16.30;8.77;;;4.00;89.30;;;;;;4877857;29;20112;-69
2021/03/24 01:30:31;;;;;;;17.37;9.50;;;4.00;89.30;;;;;;4877756;29;20045;-69
2021/03/24 01:32:58;;;;;;;17.90;9.93;;;4.00;89.30;;;;;;4875865;29;20493;-69
2021/03/24 01:35:26;;;;;;;16.73;9.83;;;4.00;89.40;;;;;;4875350;29;20064;-69
2021/03/24 01:37:52;;;;;;;13.27;8.00;;;4.00;89.40;;;;;;4873537;29;20085;-69
2021/03/24 01:40:34;;;;;;;19.30;9.87;;;4.00;89.30;;;;;;4866643;29;20097;-69
2021/03/24 01:43:07;;;;;;;18.13;9.73;;;3.90;89.30;;;;;;4887002;29;20045;-69
2021/03/24 01:45:34;;;;;;;18.67;9.50;;;3.90;90.00;;;;;;4887420;29;20417;-69
2021/03/24 01:48:03;;;;;;;15.20;8.70;;;3.90;89.40;;;;;;4877651;29;20482;-69
2021/03/24 01:50:35;;;;;;;17.93;9.17;;;3.80;89.40;;;;;;4867434;29;20102;-69
2021/03/24 01:53:14;;;;;;;16.25;8.18;;;3.80;89.40;;;;;;4879054;29;20169;-69
2021/03/24 01:55:40;;;;;;;17.27;9.17;;;3.80;89.50;;;;;;4880590;29;20113;-69
2021/03/24 01:58:07;;;;;;;19.10;8.87;;;3.80;89.50;;;;;;4876298;29;20033;-69
2021/03/24 02:00:40;;;;;;;17.27;8.83;;;3.80;89.50;;;;;;4846571;29;20048;-69
2021/03/24 02:03:06;;;;;;;16.95;8.90;;;3.80;89.50;;;;;;4875411;29;20512;-69
2021/03/24 02:05:34;;;;;;;17.17;9.30;;;3.80;89.50;;;;;;4869377;29;20464;-69
2021/03/24 02:08:25;;;;;;;17.37;9.17;;;3.70;89.50;;;;;;4859817;29;20056;-69
2021/03/24 02:11:08;;;;;;;17.20;9.40;;;3.70;89.50;;;;;;4888825;29;20051;-69
2021/03/24 02:13:55;;;;;;;;;;;3.70;89.60;;;;;;4875120;29;20053;-69
2021/03/24 02:16:27;;;;;;;14.57;7.87;;;3.70;89.60;;;;;;4869067;29;19951;-68
2021/03/24 02:18:57;;;;;;;17.48;9.32;;;3.60;89.50;;;;;;4876229;29;20049;-68
2021/03/24 02:21:32;;;;;;;18.10;9.20;;;3.60;89.60;;;;;;4877268;29;20490;-68
2021/03/24 02:24:20;;;;;;;17.47;9.33;;;3.60;89.60;;;;;;4891975;29;20075;-68
2021/03/24 02:27:15;;;;;;;18.07;8.80;;;3.60;89.50;;;;;;4874388;29;20056;-68
2021/03/24 02:29:51;;;;;;;16.87;9.33;;;3.60;89.60;;;;;;4865845;29;20071;-69
2021/03/24 02:32:20;;;;;;;15.47;8.20;;;3.60;89.60;;;;;;4876144;29;20056;-69
2021/03/24 02:34:49;;;;;;;18.93;9.07;;;3.50;89.60;;;;;;4874104;29;20165;-69
2021/03/24 02:37:18;;;;;;;17.00;8.60;;;3.50;89.60;;;;;;4874362;29;20047;-69
2021/03/24 02:39:45;;;;;;;17.23;9.27;;;3.50;89.60;;;;;;4872332;29;20033;-69
2021/03/24 02:42:14;;;;;;;19.10;9.47;;;3.50;89.60;;;;;;4876245;29;20061;-68
2021/03/24 02:44:43;;;;;;;17.00;8.50;;;3.50;89.70;;;;;;4871827;29;20078;-69
2021/03/24 02:47:11;;;;;;;16.67;8.73;;;3.50;89.70;;;;;;4871031;29;20464;-68
2021/03/24 02:49:41;;;;;;;15.70;7.87;;;3.40;89.70;;;;;;4874355;29;20072;-68
2021/03/24 02:52:11;;;;;;;18.10;9.20;;;3.50;89.70;;;;;;4876364;29;20063;-69
2021/03/24 02:54:39;;;;;;;18.53;9.40;;;3.40;89.70;;;;;;4877345;29;20549;-68
2021/03/24 02:57:06;;;;;;;19.47;10.50;;;3.40;90.10;;;;;;4869352;29;20502;-68
2021/03/24 02:59:33;;;;;;;17.70;8.83;;;3.40;89.70;;;;;;4865531;29;20041;-69
2021/03/24 03:02:17;;;;;;;17.67;9.53;;;3.40;89.70;;;;;;4860785;29;20120;-69
2021/03/24 03:04:59;;;;;;;16.53;8.63;;;3.40;89.70;;;;;;4877318;29;20041;-69
2021/03/24 03:07:38;;;;;;;14.57;7.80;;;3.40;89.70;;;;;;4877908;29;20049;-69
2021/03/24 03:10:16;;;;;;;16.17;7.17;;;3.30;90.10;;;;;;4876559;29;20109;-68
2021/03/24 03:12:58;;;;;;;16.97;8.87;;;3.30;89.70;;;;;;4871040;29;20493;-68
2021/03/24 03:15:27;;;;;;;18.33;9.13;;;3.30;89.70;;;;;;4867550;29;20113;-68
2021/03/24 03:17:59;;;;;;;13.67;8.13;;;3.30;89.80;;;;;;4877413;29;20052;-72
2021/03/24 03:20:31;;;;;;;17.90;9.60;;;3.30;89.80;;;;;;4864440;29;20045;-72
2021/03/24 03:23:04;;;;;;;19.00;9.35;;;3.20;89.70;;;;;;4876091;29;20649;-72
2021/03/24 03:25:37;;;;;;;;;;;3.20;89.70;;;;;;4865460;29;20048;-72
2021/03/24 03:28:08;;;;;;;18.80;8.67;;;3.10;89.70;;;;;;4876056;29;20018;-72
2021/03/24 03:30:38;;;;;;;16.30;8.33;;;3.10;90.10;;;;;;4876835;29;20044;-73
2021/03/24 03:33:09;;;;;;;17.53;9.00;;;3.10;89.80;;;;;;4877612;29;20083;-72
2021/03/24 03:35:38;;;;;;;17.83;8.87;;;3.10;89.80;;;;;;4891870;29;20147;-73
2021/03/24 03:38:09;;;;;;;18.43;8.37;;;3.10;89.70;;;;;;4877600;29;20077;-69
2021/03/24 03:40:37;;;;;;;18.30;9.43;;;3.10;89.80;;;;;;4872363;29;20056;-69
2021/03/24 03:43:06;;;;;;;19.47;9.60;;;3.10;89.90;;;;;;4862326;29;20082;-69
2021/03/24 03:45:38;;;;;;;21.80;10.10;;;3.10;89.90;;;;;;4863385;29;20041;-69
2021/03/24 03:48:05;;;;;;;22.20;10.53;;;3.10;89.90;;;;;;4880624;29;20120;-69
2021/03/24 03:50:33;;;;;;;18.80;8.63;;;3.10;90.00;;;;;;4879175;29;20071;-69
2021/03/24 03:53:22;;;;;;;21.93;10.20;;;3.10;90.00;;;;;;4881125;29;20088;-69
2021/03/24 03:55:56;;;;;;;19.87;9.93;;;3.10;90.00;;;;;;4873288;29;20073;-69
2021/03/24 03:58:41;;;;;;;19.63;9.50;;;3.10;90.00;;;;;;4879257;29;20061;-69
2021/03/24 04:01:24;;;;;;;16.30;8.03;;;3.10;90.00;;;;;;4880463;29;20040;-69
2021/03/24 04:03:58;;;;;;;14.85;8.45;;;3.10;90.00;;;;;;4880164;29;20101;-69
2021/03/24 04:06:37;;;;;;;20.00;9.37;;;3.10;90.00;;;;;;4868022;29;20048;-68
2021/03/24 04:09:08;;;;;;;22.20;9.73;;;3.00;90.00;;;;;;4876891;29;20065;-69
2021/03/24 04:11:43;;;;;;;19.77;9.57;;;3.00;90.00;;;;;;4879483;29;20060;-69
2021/03/24 04:14:15;;;;;;;17.30;9.13;;;3.00;90.10;;;;;;4878568;29;20124;-69
2021/03/24 04:16:44;;;;;;;18.08;9.02;;;3.00;90.10;;;;;;4880329;29;20045;-69
2021/03/24 04:19:13;;;;;;;19.13;9.27;;;3.00;90.10;;;;;;4878407;29;20424;-69
2021/03/24 04:21:43;;;;;;;18.63;8.80;;;3.00;90.10;;;;;;4879628;29;20060;-69
2021/03/24 04:24:33;;;;;;;20.47;9.63;;;3.00;90.10;;;;;;4894543;29;20048;-69
2021/03/24 04:27:02;;;;;;;19.40;9.97;;;3.00;90.30;;;;;;4879168;29;20065;-69
2021/03/24 04:29:45;;;;;;;18.50;9.53;;;2.90;90.10;;;;;;4873782;29;20052;-69
2021/03/24 04:32:12;;;;;;;17.50;9.02;;;2.90;90.10;;;;;;4875051;29;20045;-69
2021/03/24 04:34:40;;;;;;;19.27;8.93;;;2.90;90.10;;;;;;4874205;29;20049;-69
2021/03/24 04:37:25;;;;;;;19.77;9.07;;;2.90;90.10;;;;;;4867257;29;20100;-69
2021/03/24 04:39:59;;;;;;;19.43;8.73;;;2.90;90.10;;;;;;4880225;29;20041;-69
2021/03/24 04:42:59;;;;;;;21.63;9.83;;;2.90;90.20;;;;;;4876958;29;20096;-69
2021/03/24 04:45:54;;;;;;;22.30;9.37;;;2.90;90.10;;;;;;4866868;29;20137;-69
2021/03/24 04:48:42;;;;;;;17.80;8.20;;;2.90;90.10;;;;;;4872690;29;20049;-68
2021/03/24 04:51:17;;;;;;;19.67;9.33;;;2.90;90.20;;;;;;4867884;29;20450;-68
2021/03/24 04:53:55;;;;;;;18.00;9.30;;;2.80;90.10;;;;;;4878547;29;20052;-68
2021/03/24 04:56:22;;;;;;;16.67;8.30;;;2.80;90.20;;;;;;4867375;29;20045;-68
2021/03/24 04:58:57;;;;;;;18.53;8.13;;;2.80;90.20;;;;;;4877837;29;20049;-72
2021/03/24 05:01:38;;;;;;;18.77;9.00;;;2.80;90.20;;;;;;4878344;29;20077;-72
2021/03/24 05:04:19;;;;;;;19.23;9.80;;;2.70;90.20;;;;;;4879060;29;20040;-72
2021/03/24 05:06:52;;;;;;;22.57;9.50;;;2.70;90.20;;;;;;4870805;29;20081;-73
2021/03/24 05:09:18;;;;;;;20.27;9.13;;;2.70;90.20;;;;;;4873534;29;20087;-72
2021/03/24 05:12:06;;;;;;;17.53;8.23;;;2.70;90.20;;;;;;4869994;29;20045;-72
2021/03/24 05:14:56;;;;;;;22.03;9.43;;;2.70;90.20;;;;;;4868022;29;20143;-72
2021/03/24 05:17:27;;;;;;;19.63;9.10;;;2.70;90.20;;;;;;4870460;29;20049;-72
2021/03/24 05:20:00;;;;;;;21.53;9.90;;;2.70;90.20;;;;;;4877377;29;20060;-72
2021/03/24 05:22:32;;;;;;;;;;;2.70;90.20;;;;;;4878694;29;20144;-72
2021/03/24 05:25:12;;;;;;;19.83;8.63;;;2.70;90.20;;;;;;4878756;29;20906;-72
2021/03/24 05:27:42;;;;;;;16.30;8.07;;;2.70;90.20;;;;;;4886808;29;20100;-72
2021/03/24 05:30:32;;;;;;;19.83;8.33;;;2.70;90.20;;;;;;4878724;29;20104;-72
2021/03/24 05:33:15;;;;;;;18.43;8.03;;;2.70;90.20;;;;;;4874398;29;20132;-72
2021/03/24 05:35:58;;;;;;;20.33;8.67;;;2.70;90.20;;;;;;4878459;29;20049;-72
2021/03/24 05:38:34;;;;;;;20.63;9.50;;;2.70;90.20;;;;;;4866589;29;20405;-72
2021/03/24 05:41:16;;;;;;;21.73;10.23;;;2.70;90.20;;;;;;4892287;29;20053;-72
2021/03/24 05:43:56;;;;;;;23.20;10.37;;;2.70;90.20;;;;;;4879113;29;20047;-72
2021/03/24 05:46:22;;;;;;;20.90;9.77;;;2.70;90.20;;;;;;4869536;29;20049;-72
2021/03/24 05:48:58;;;;;;;20.17;9.50;;;2.70;90.30;;;;;;4877787;29;20067;-72
2021/03/24 05:51:44;;;;;;;20.00;8.60;;;2.70;90.30;;;;;;4877841;29;20101;-72
2021/03/24 05:54:31;;;;;;;19.40;8.47;;;2.80;90.30;;;;;;4876251;29;20133;-72
2021/03/24 05:57:16;;;;;;;19.27;9.27;;;2.80;90.20;;;;;;4878956;29;20052;-72
2021/03/24 05:59:52;;;;;;;27.70;8.90;;;2.80;90.20;;;;;;4867187;29;20045;-72
2021/03/24 06:02:30;;;;;;;19.30;8.93;;;2.90;90.20;;;;;;4872818;29;20504;-72
2021/03/24 06:05:09;;;;;;;16.63;8.77;;;2.90;90.20;;;;;;4879027;29;20052;-72
2021/03/24 06:08:12;;;;;;;16.30;7.67;;;2.90;90.20;;;;;;4875212;29;20497;-72
2021/03/24 06:10:45;;;;;;;15.40;7.10;;;3.00;90.50;;;;;;4872048;29;20131;-73
2021/03/24 06:13:26;;;;;;;17.40;7.72;;;3.00;90.20;;;;;;4866090;29;20049;-72
2021/03/24 06:16:01;;;;;;;15.00;7.50;;;3.00;90.20;;;;;;4868220;29;20046;-72
2021/03/24 06:18:53;;;;;;;16.27;6.93;;;3.00;90.20;;;;;;4877414;29;20150;-72
2021/03/24 06:21:40;;;;;;;13.77;6.40;;;3.00;90.20;;;;;;4878090;29;20152;-72
2021/03/24 06:24:32;;;;;;;13.63;6.63;;;3.10;90.10;;;;;;4877401;29;20112;-73
2021/03/24 06:27:42;;;;;;;14.33;7.30;;;3.10;90.10;;;;;;4863793;29;20129;-73
2021/03/24 06:30:30;;;;;;;12.03;6.23;;;3.10;90.10;;;;;;4860975;29;20106;-72
2021/03/24 06:33:22;;;;;;;14.23;6.60;;;3.10;90.10;;;;;;4872454;29;20382;-72
2021/03/24 06:36:01;;;;;;;11.80;5.65;;;3.10;90.10;;;;;;4874884;29;20072;-72
2021/03/24 06:38:58;;;;;;;11.40;5.40;;;3.20;90.20;;;;;;4875387;29;20049;-72
2021/03/24 06:41:33;;;;;;;10.73;5.17;;;3.30;90.10;;;;;;4870483;29;20057;-72
2021/03/24 06:44:31;;;;;;;11.53;5.50;;;3.30;90.10;;;;;;4874098;29;20033;-73
2021/03/24 06:47:32;;;;;;;11.63;5.53;;;3.40;90.10;;;;;;4877565;29;20044;-72
2021/03/24 06:50:26;;;;;;;12.57;6.17;;;3.50;90.10;;;;;;4872164;29;20059;-72
2021/03/24 06:53:18;;;;;;;10.87;5.73;;;3.60;90.00;;;;;;4886096;29;20053;-72
2021/03/24 06:56:34;;;;;;;11.47;5.97;;;3.70;90.00;;;;;;4879538;29;20471;-69
2021/03/24 06:59:18;;;;;;;12.10;5.97;;;3.80;90.00;;;;;;4872895;29;20040;-69
2021/03/24 07:02:07;;;;;;;12.23;6.37;;;3.90;89.80;;;;;;4865965;29;20080;-69
2021/03/24 07:04:52;;;;;;;11.87;5.87;;;4.00;89.80;;;;;;4869794;29;20059;-69
2021/03/24 07:07:56;;;;;;;12.40;5.73;;;4.10;89.80;;;;;;4868602;29;20056;-69
2021/03/24 07:10:41;;;;;;;11.10;5.70;;;4.20;89.70;;;;;;4861941;29;20077;-70
2021/03/24 07:13:46;;;;;;;12.30;6.33;;;4.40;89.70;;;;;;4872497;29;20037;-69
2021/03/24 07:16:21;;;;;;;12.67;6.13;;;4.50;89.60;;;;;;4869183;29;20052;-73
2021/03/24 07:19:14;;;;;;;12.07;5.70;;;4.60;89.50;;;;;;4862324;29;20565;-72
2021/03/24 07:22:03;;;;;;;12.32;6.32;;;4.70;89.50;;;;;;4866918;29;20072;-72
2021/03/24 07:25:03;;;;;;;12.10;6.07;;;4.90;89.50;;;;;;4873034;29;20080;-72
2021/03/24 07:27:41;;;;;;;12.73;6.30;;;5.10;89.40;;;;;;4875499;29;20049;-73
2021/03/24 07:30:44;;;;;;;14.33;7.63;;;5.20;89.20;;;;;;4871798;29;20774;-73
2021/03/24 07:33:34;;;;;;;14.43;7.50;;;5.30;89.10;;;;;;4874093;29;20060;-72
2021/03/24 07:36:43;;;;;;;19.13;9.40;;;5.40;89.10;;;;;;4877897;29;20875;-73
2021/03/24 07:39:29;;;;;;;16.53;9.20;;;5.60;88.90;;;;;;4871953;29;20045;-73
2021/03/24 07:42:04;;;;;;;16.23;8.23;;;5.70;88.80;;;;;;4863491;29;20637;-72
2021/03/24 07:45:12;;;;;;;16.10;7.90;;;5.70;88.80;;;;;;4870637;29;20056;-72
2021/03/24 07:48:21;;;;;;;16.53;8.70;;;5.80;88.80;;;;;;4866532;29;20104;-72
2021/03/24 07:51:28;;;;;;;13.97;7.87;;;5.90;88.80;;;;;;4866217;29;20068;-73
2021/03/24 07:54:06;;;;;;;15.97;8.30;;;6.00;88.70;;;;;;4875506;29;20045;-72
2021/03/24 07:56:42;;;;;;;15.17;7.97;;;6.10;88.70;;;;;;4885772;29;20077;-72
2021/03/24 07:59:29;;;;;;;14.43;7.57;;;6.20;88.60;;;;;;4870345;29;20048;-73
2021/03/24 08:02:21;;;;;;;14.00;7.57;;;6.30;88.60;;;;;;4872181;29;20057;-73
2021/03/24 08:05:29;;;;;;;13.87;6.90;;;6.50;88.70;;;;;;4864104;29;20067;-72
2021/03/24 08:08:16;;;;;;;15.60;8.70;;;6.60;88.60;;;;;;4848268;29;20052;-73
2021/03/24 08:11:16;;;;;;;20.10;9.47;;;6.70;88.50;;;;;;4862391;29;20065;-73
2021/03/24 08:14:11;;;;;;;17.93;9.60;;;6.80;88.40;;;;;;4881481;29;20056;-72
2021/03/24 08:17:02;;;;;;;19.33;10.03;;;6.90;88.30;;;;;;4865664;29;20071;-73
2021/03/24 08:19:50;;;;;;;17.50;9.77;;;7.00;88.20;;;;;;4870143;29;20049;-73
2021/03/24 08:22:26;;;;;;;18.70;10.47;;;7.20;88.30;;;;;;4868398;29;20666;-73
2021/03/24 08:25:02;;;;;;;16.47;9.57;;;7.30;88.20;;;;;;4868016;29;20561;-74
2021/03/24 08:27:48;;;;;;;18.67;9.93;;;7.40;88.10;;;;;;4865906;29;20128;-72
2021/03/24 08:30:24;;;;;;;21.83;11.37;;;7.50;88.00;;;;;;4865095;29;20041;-73
2021/03/24 08:33:24;;;;;;;19.23;9.83;;;7.60;88.00;;;;;;4878702;29;20477;-73
2021/03/24 08:36:23;;;;;;;24.67;13.88;;;7.70;87.90;;;;;;4866667;29;20414;-73
2021/03/24 08:39:11;;;;;;;28.77;16.47;;;7.80;87.70;;;;;;4874023;29;20576;-72
2021/03/24 08:41:43;;;;;;;34.80;17.42;;;7.90;87.40;;;;;;4876694;29;20080;-72
2021/03/24 08:44:13;;;;;;;32.58;18.38;;;7.90;87.30;;;;;;4867263;29;20041;-71
2021/03/24 08:46:44;;;;;;;37.00;19.88;;;8.00;87.10;;;;;;4867093;29;20053;-72
2021/03/24 08:49:21;;;;;;;39.90;19.55;;;8.10;87.10;;;;;;4872123;29;20405;-72
2021/03/24 08:51:51;;;;;;;40.30;23.65;;;8.20;87.00;;;;;;4872348;29;20052;-72
2021/03/24 08:54:42;;;;;;;40.15;21.90;;;8.20;86.60;;;;;;4877123;29;20689;-71
2021/03/24 08:57:27;;;;;;;40.50;22.90;;;8.40;86.70;;;;;;4875587;29;20425;-72
2021/03/24 09:00:15;;;;;;;44.47;23.90;;;8.40;86.50;;;;;;4865749;29;20056;-72
2021/03/24 09:02:57;;;;;;;45.55;25.63;;;8.60;86.30;;;;;;4874679;29;20052;-72
2021/03/24 09:05:47;;;;;;;46.30;25.02;;;8.60;86.00;;;;;;4875799;29;20045;-72
2021/03/24 09:08:26;;;;;;;46.00;23.35;;;8.70;85.90;;;;;;4871192;29;20053;-72
2021/03/24 09:11:10;;;;;;;44.00;23.10;;;8.80;85.90;;;;;;4871472;29;20049;-72
2021/03/24 09:13:42;;;;;;;44.80;25.27;;;8.90;85.70;;;;;;4875669;29;20044;-68
2021/03/24 09:16:34;;;;;;;48.22;24.98;;;9.00;85.60;;;;;;4876231;29;20045;-69
2021/03/24 09:19:40;;;;;;;43.83;22.37;;;9.00;85.30;;;;;;4872463;29;20698;-68
2021/03/24 09:22:48;;;;;;;44.65;24.02;;;9.10;85.20;;;;;;4864127;29;20545;-69
2021/03/24 09:25:41;;;;;;;44.22;24.50;;;9.20;85.00;;;;;;4868695;29;20049;-68
2021/03/24 09:28:23;;;;;;;43.05;22.60;;;9.30;84.90;;;;;;4867520;29;20489;-69
2021/03/24 09:31:08;;;;;;;39.58;22.95;;;9.40;84.70;;;;;;4871218;29;20052;-68
2021/03/24 09:34:13;;;;;;;38.83;19.83;;;9.50;84.60;;;;;;4885664;29;20104;-69
2021/03/24 09:37:01;;;;;;;40.60;22.88;;;9.50;84.50;;;;;;4869994;29;20533;-68
2021/03/24 09:39:48;;;;;;;41.65;22.60;;;9.60;84.20;;;;;;4873228;29;20115;-69
2021/03/24 09:42:25;;;;;;;39.40;22.40;;;9.70;84.00;;;;;;4872711;29;20057;-69
2021/03/24 09:44:56;;;;;;;39.17;21.05;;;9.70;84.10;;;;;;4873803;29;20037;-69
2021/03/24 09:47:44;;;;;;;47.58;25.38;;;9.90;84.00;;;;;;4873751;29;20652;-69
2021/03/24 09:50:11;;;;;;;51.28;26.88;;;10.00;83.20;;;;;;4867802;29;20054;-68
2021/03/24 09:52:54;;;;;;;45.95;25.60;;;10.00;82.80;;;;;;4869086;29;20101;-68
2021/03/24 09:55:26;;;;;;;44.35;24.30;;;10.10;82.70;;;;;;4874454;29;20458;-68
2021/03/24 09:58:18;;;;;;;47.30;24.60;;;10.10;82.60;;;;;;4877317;29;20053;-68
2021/03/24 10:00:57;;;;;;;43.20;23.40;;;10.30;82.40;;;;;;4872499;29;20045;-68
2021/03/24 10:03:38;;;;;;;48.40;25.25;;;10.40;82.20;;;;;;4868914;29;20585;-68
2021/03/24 10:06:11;;;;;;;48.45;24.40;;;10.50;81.80;;;;;;4875321;29;20127;-68
2021/03/24 10:08:46;;;;;;;47.55;25.55;;;10.50;81.60;;;;;;4874153;29;20064;-68
2021/03/24 10:11:24;;;;;;;46.20;26.58;;;10.70;81.40;;;;;;4876185;29;20049;-69
2021/03/24 10:14:07;;;;;;;42.50;22.35;;;10.80;81.30;;;;;;4888370;29;20049;-69
2021/03/24 10:16:37;;;;;;;46.05;23.80;;;10.90;81.20;;;;;;4876796;29;20037;-69
2021/03/24 10:19:36;;;;;;;36.83;21.02;;;11.00;80.80;;;;;;4878326;29;20094;-69
2021/03/24 10:22:15;;;;;;;41.20;22.50;;;11.10;80.50;;;;;;4872607;29;20061;-73
2021/03/24 10:25:11;;;;;;;42.08;22.90;;;11.20;80.20;;;;;;4877097;29;20036;-72
2021/03/24 10:27:45;;;;;;;39.80;20.63;;;11.30;79.60;;;;;;4867677;29;20061;-71
2021/03/24 10:30:11;;;;;;;46.60;24.33;;;11.30;79.60;;;;;;4878082;29;20041;-71
2021/03/24 10:32:58;;;;;;;42.97;24.33;;;11.40;79.10;;;;;;4875653;29;20076;-73
2021/03/24 10:35:36;;;;;;;42.72;23.05;;;11.50;78.30;;;;;;4866743;29;20041;-79
2021/03/24 10:38:24;;;;;;;34.95;19.27;;;11.60;78.20;;;;;;4874583;29;20117;-72
2021/03/24 10:41:06;;;;;;;45.80;23.75;;;11.70;78.40;;;;;;4875963;29;20073;-78
2021/03/24 10:43:45;;;;;;;37.42;21.63;;;11.80;77.70;;;;;;4870536;29;20057;-74
2021/03/24 10:46:39;;;;;;;45.55;24.45;;;11.90;77.60;;;;;;4866832;29;20033;-72
2021/03/24 10:49:17;;;;;;;37.88;20.02;;;12.00;77.20;;;;;;4873230;29;20055;-71
2021/03/24 10:51:54;;;;;;;31.98;17.55;;;12.10;77.00;;;;;;4870970;29;20044;-71
2021/03/24 10:54:26;;;;;;;29.85;16.48;;;12.30;77.20;;;;;;4867661;29;20045;-71
2021/03/24 10:57:11;;;;;;;31.37;18.23;;;12.40;77.90;;;;;;4882247;29;20053;-71
2021/03/24 11:00:04;;;;;;;39.15;19.02;;;12.50;76.40;;;;;;4882698;29;20286;-72
2021/03/24 11:02:40;;;;;;;37.67;17.88;;;12.50;75.60;;;;;;4877403;29;20061;-71
2021/03/24 11:05:21;;;;;;;35.88;19.05;;;12.50;75.40;;;;;;4878944;29;20145;-68
2021/03/24 11:07:56;;;;;;;35.05;19.75;;;12.50;75.20;;;;;;4881785;29;20045;-68
2021/03/24 11:10:29;;;;;;;31.05;18.00;;;12.50;74.40;;;;;;4899869;29;20052;-68
2021/03/24 11:12:57;;;;;;;;;;;12.60;74.60;;;;;;4869538;29;20052;-68
2021/03/24 11:15:48;;;;;;;32.38;16.65;;;12.60;74.40;;;;;;4883824;29;19979;-68
2021/03/24 11:18:20;;;;;;;33.80;18.63;;;12.60;74.30;;;;;;4883573;29;20065;-68
2021/03/24 11:20:51;;;;;;;;;;;12.70;74.40;;;;;;4884155;29;20037;-68
2021/03/24 11:23:29;;;;;;;29.15;15.32;;;12.70;74.00;;;;;;4883801;29;19984;-71
2021/03/24 11:26:02;;;;;;;30.33;15.95;;;12.70;74.00;;;;;;4882477;29;20458;-71
2021/03/24 11:28:38;;;;;;;30.98;17.77;;;12.80;73.60;;;;;;4883799;29;20473;-71
2021/03/24 11:31:11;;;;;;;31.65;16.27;;;12.90;73.10;;;;;;4882184;29;20060;-72
2021/03/24 11:33:43;;;;;;;28.65;15.77;;;12.90;73.10;;;;;;4878260;29;20045;-72
2021/03/24 11:36:16;;;;;;;31.42;17.30;;;13.00;72.50;;;;;;4882172;29;20551;-73
2021/03/24 11:39:24;;;;;;;33.88;16.83;;;13.10;72.20;;;;;;4883441;29;20048;-71
2021/03/24 11:41:52;;;;;;;25.98;14.43;;;13.20;72.40;;;;;;4868657;29;20085;-72
2021/03/24 11:44:22;;;;;;;24.17;14.13;;;13.20;71.80;;;;;;4870737;29;20052;-72
2021/03/24 11:46:50;;;;;;;28.40;15.70;;;13.40;71.90;;;;;;4893085;29;20092;-72
2021/03/24 11:49:26;;;;;;;30.23;15.85;;;13.50;70.60;;;;;;4880949;29;20065;-71
2021/03/24 11:52:18;;;;;;;28.58;16.48;;;13.50;70.20;;;;;;4881920;29;20040;-71
2021/03/24 11:54:48;;;;;;;32.70;16.75;;;13.60;68.90;;;;;;4897536;29;20053;-72
2021/03/24 11:57:32;;;;;;;25.20;14.80;;;13.60;69.10;;;;;;4877463;29;20048;-71
2021/03/24 12:00:33;;;;;;;27.95;14.02;;;13.70;69.10;;;;;;4882092;29;20049;-72
2021/03/24 12:03:34;;;;;;;28.05;14.25;;;13.70;69.20;;;;;;4887957;29;20045;-72
2021/03/24 12:06:28;;;;;;;26.88;15.50;;;13.80;68.60;;;;;;4883176;29;20116;-73
2021/03/24 12:09:02;;;;;;;27.80;15.00;;;13.80;67.80;;;;;;4880521;29;20091;-72
2021/03/24 12:11:32;;;;;;;26.58;14.77;;;13.90;67.90;;;;;;4879372;29;20056;-72
2021/03/24 12:14:12;;;;;;;24.05;13.38;;;13.90;67.60;;;;;;4880223;29;20127;-72
2021/03/24 12:16:49;;;;;;;21.55;13.00;;;13.90;67.70;;;;;;4876544;29;20730;-73
2021/03/24 12:19:39;;;;;;;24.63;13.48;;;14.00;67.90;;;;;;4877856;29;20116;-72
2021/03/24 12:22:26;;;;;;;21.70;12.40;;;14.10;67.40;;;;;;4872617;29;20049;-72
2021/03/24 12:25:22;;;;;;;23.92;13.32;;;14.10;67.40;;;;;;4875853;29;20049;-73
2021/03/24 12:28:08;;;;;;;25.90;13.50;;;14.20;66.80;;;;;;4878669;29;20501;-73
2021/03/24 12:30:40;;;;;;;26.33;13.45;;;14.20;66.80;;;;;;4877994;29;20056;-73
2021/03/24 12:33:15;;;;;;;26.67;14.05;;;14.20;67.20;;;;;;4876282;29;20052;-72
2021/03/24 12:35:46;;;;;;;22.77;13.38;;;14.20;66.50;;;;;;4880031;29;20097;-72
2021/03/24 12:38:16;;;;;;;25.52;13.60;;;14.30;66.10;;;;;;4873862;29;20124;-71
2021/03/24 12:40:53;;;;;;;20.38;12.05;;;14.40;65.80;;;;;;4877848;29;20041;-72
2021/03/24 12:43:31;;;;;;;21.88;12.50;;;14.40;65.70;;;;;;4877599;29;20041;-73
2021/03/24 12:46:19;;;;;;;22.90;12.73;;;14.50;65.50;;;;;;4879609;29;20515;-73
2021/03/24 12:48:57;;;;;;;21.92;12.00;;;14.50;65.30;;;;;;4877942;29;20105;-73
2021/03/24 12:51:33;;;;;;;26.85;14.10;;;14.50;65.10;;;;;;4878362;29;20072;-72
2021/03/24 12:54:02;;;;;;;26.90;14.32;;;14.50;64.10;;;;;;4875296;29;20049;-72
2021/03/24 12:56:53;;;;;;;25.50;14.88;;;14.50;64.10;;;;;;4878915;29;20484;-72
2021/03/24 12:59:26;;;;;;;22.02;12.18;;;14.50;64.30;;;;;;4880072;29;20068;-72
2021/03/24 13:01:58;;;;;;;;;;;14.50;64.70;;;;;;4880464;29;20045;-72
2021/03/24 13:04:43;;;;;;;21.17;12.73;;;14.50;64.70;;;;;;4879908;29;19924;-72
2021/03/24 13:07:20;;;;;;;21.15;11.98;;;14.60;64.60;;;;;;4886968;29;20172;-73
2021/03/24 13:10:10;;;;;;;29.85;13.75;;;14.60;64.10;;;;;;4878413;29;20052;-73
2021/03/24 13:12:48;;;;;;;29.67;15.00;;;14.80;63.70;;;;;;4864268;29;20493;-73
2021/03/24 13:15:47;;;;;;;24.45;13.95;;;14.80;63.40;;;;;;4873904;29;20042;-72
2021/03/24 13:18:40;;;;;;;25.73;12.55;;;14.90;63.50;;;;;;4891413;29;20135;-72
2021/03/24 13:21:12;;;;;;;24.27;12.82;;;14.90;63.50;;;;;;4874750;29;20432;-73
2021/03/24 13:23:46;;;;;;;20.25;11.85;;;14.90;63.50;;;;;;4887727;29;20052;-73
2021/03/24 13:26:29;;;;;;;23.70;13.00;;;15.00;63.80;;;;;;4878924;29;20071;-74
2021/03/24 13:29:25;;;;;;;23.02;13.45;;;15.00;63.60;;;;;;4874806;29;20722;-74
2021/03/24 13:31:57;;;;;;;27.35;16.42;;;15.10;62.90;;;;;;4888487;29;20411;-73
2021/03/24 13:34:42;;;;;;;24.10;13.57;;;15.10;62.60;;;;;;4885874;29;20048;-72
2021/03/24 13:37:19;;;;;;;20.08;11.70;;;15.10;62.80;;;;;;4877095;29;20055;-72
2021/03/24 13:40:01;;;;;;;23.30;12.65;;;15.10;62.90;;;;;;4889463;29;20299;-73
2021/03/24 13:42:30;;;;;;;22.73;13.00;;;15.20;62.90;;;;;;4888386;29;20429;-73